Time;durP1;ratioP1;P1;durP2;ratioP2;P2;SDS_P1;SDS_P2;PMS_P1;PMS_P2;Temp;Humidity;BMP_temperature;BMP_pressure;BME280_temperature;BME280_humidity;BME280_pressure;Samples;Min_cycle;Max_cycle;Signal;HPM_P1;HPM_P2
2024/04/17 00:01:01;;;;;;;0.80;0.70;;;7.00;99.90;;;7.72;100.00;97320.00;5491237;25;20478;-78
2024/04/17 00:03:28;;;;;;;0.70;0.70;;;6.90;99.90;;;7.71;100.00;97318.38;5488403;26;20973;-78
2024/04/17 00:05:59;;;;;;;0.70;0.70;;;6.90;99.90;;;7.55;100.00;97316.84;5492917;26;20751;-78
2024/04/17 00:08:26;;;;;;;0.80;0.70;;;6.70;99.90;;;7.43;100.00;97314.91;5491169;26;20935;-78
2024/04/17 00:10:56;;;;;;;0.90;0.80;;;6.60;99.90;;;7.46;100.00;97310.13;5491664;26;20479;-78
2024/04/17 00:13:24;;;;;;;0.87;0.77;;;6.60;99.90;;;7.49;100.00;97315.00;5486991;26;20494;-78
2024/04/17 00:16:01;;;;;;;0.80;0.73;;;6.70;99.90;;;7.36;100.00;97314.84;5489555;26;20995;-78
2024/04/17 00:18:30;;;;;;;1.43;0.80;;;6.60;99.90;;;7.42;100.00;97319.31;5487588;25;21080;-77
2024/04/17 00:21:00;;;;;;;1.53;0.80;;;6.60;99.90;;;7.38;100.00;97320.69;5490245;25;20878;-78
2024/04/17 00:23:28;;;;;;;1.27;0.70;;;6.50;99.90;;;7.36;100.00;97320.03;5486211;26;20536;-78
2024/04/17 00:25:58;;;;;;;0.90;0.80;;;6.50;99.90;;;7.33;100.00;97320.41;5488937;26;20764;-77
2024/04/17 00:28:26;;;;;;;5.10;0.87;;;6.40;99.90;;;7.39;100.00;97319.66;5492321;26;20463;-78
2024/04/17 00:30:59;;;;;;;0.80;0.80;;;6.60;99.90;;;7.39;100.00;97322.28;5493017;26;20510;-78
2024/04/17 00:33:27;;;;;;;2.70;0.80;;;6.60;99.90;;;7.41;100.00;97322.91;5488672;26;20779;-78
2024/04/17 00:35:57;;;;;;;0.80;0.70;;;6.60;99.90;;;7.46;100.00;97320.53;5486446;26;21080;-78
2024/04/17 00:38:25;;;;;;;1.10;0.77;;;6.60;99.90;;;7.40;100.00;97329.09;5486297;25;20516;-79
2024/04/17 00:40:55;;;;;;;0.90;0.80;;;6.60;99.90;;;7.27;100.00;97326.34;5486962;26;20586;-78
2024/04/17 00:43:23;;;;;;;0.70;0.70;;;6.50;99.90;;;7.28;100.00;97321.97;5484904;26;20475;-78
2024/04/17 00:45:54;;;;;;;0.70;0.70;;;6.50;99.90;;;7.21;100.00;97332.31;5486671;26;21239;-78
2024/04/17 00:48:26;;;;;;;0.70;0.60;;;6.30;99.90;;;7.15;100.00;97321.84;5487424;25;20473;-78
2024/04/17 00:50:57;;;;;;;1.00;0.90;;;6.30;99.90;;;7.12;100.00;97322.97;5487338;26;20527;-79
2024/04/17 00:53:30;;;;;;;1.47;1.17;;;6.20;99.90;;;7.08;100.00;97319.94;5485437;26;20481;-78
2024/04/17 00:56:02;;;;;;;0.87;0.80;;;6.20;99.90;;;7.02;100.00;97314.66;5485965;25;20572;-78
2024/04/17 00:58:30;;;;;;;0.80;0.80;;;6.10;99.90;;;6.99;100.00;97312.44;5488433;26;20534;-78
2024/04/17 01:01:00;;;;;;;1.07;0.97;;;6.10;99.90;;;7.00;100.00;97319.25;5489842;26;20473;-78
2024/04/17 01:03:30;;;;;;;1.10;0.90;;;6.10;99.90;;;7.05;100.00;97312.50;5488320;26;23672;-78
2024/04/17 01:06:00;;;;;;;1.07;0.97;;;6.10;99.90;;;7.06;100.00;97308.13;5488278;26;20474;-78
2024/04/17 01:08:28;;;;;;;0.83;0.80;;;6.20;99.90;;;7.03;100.00;97314.50;5487682;25;20493;-79
2024/04/17 01:11:02;;;;;;;1.40;0.80;;;6.10;99.90;;;7.05;100.00;97306.50;5489304;26;20569;-79
2024/04/17 01:13:30;;;;;;;1.00;0.90;;;6.10;99.90;;;7.02;100.00;97305.09;5491204;26;20925;-79
2024/04/17 01:16:01;;;;;;;1.27;0.80;;;6.10;99.90;;;7.07;100.00;97304.53;5490610;25;20536;-78
2024/04/17 01:18:32;;;;;;;1.00;0.90;;;6.20;99.90;;;7.09;100.00;97308.56;5487901;26;20481;-79
2024/04/17 01:21:06;;;;;;;0.80;0.77;;;6.20;99.90;;;7.10;100.00;97293.78;5485877;26;20529;-79
2024/04/17 01:23:33;;;;;;;0.80;0.80;;;6.20;99.90;;;7.15;100.00;97303.63;5486848;26;20469;-79
2024/04/17 01:26:06;;;;;;;0.90;0.70;;;6.30;99.90;;;7.15;100.00;97304.41;5489302;25;20485;-79
2024/04/17 01:28:34;;;;;;;0.70;0.70;;;6.30;99.90;;;7.19;100.00;97302.25;5486308;26;20490;-79
2024/04/17 01:31:04;;;;;;;1.00;0.90;;;6.40;99.90;;;7.25;100.00;97304.94;5486028;26;23391;-78
2024/04/17 01:33:32;;;;;;;0.80;0.80;;;6.40;99.90;;;7.25;100.00;97302.34;5486393;25;20578;-78
2024/04/17 01:36:02;;;;;;;1.00;0.80;;;6.50;99.90;;;7.30;100.00;97305.19;5487770;25;20929;-78
2024/04/17 01:38:29;;;;;;;1.30;1.00;;;6.50;99.90;;;7.26;100.00;97303.94;5490078;26;20556;-78
2024/04/17 01:41:00;;;;;;;1.20;1.10;;;6.50;99.90;;;7.19;100.00;97303.06;5490237;26;20474;-78
2024/04/17 01:43:31;;;;;;;1.80;1.20;;;6.40;99.90;;;7.19;100.00;97307.44;5489940;25;20477;-78
2024/04/17 01:46:03;;;;;;;1.57;1.23;;;6.40;99.90;;;7.19;100.00;97308.25;5490089;26;20588;-78
2024/04/17 01:48:30;;;;;;;1.10;1.00;;;6.50;99.90;;;7.27;100.00;97305.56;5487332;26;20572;-78
2024/04/17 01:51:01;;;;;;;1.40;1.30;;;6.50;99.90;;;7.28;100.00;97317.56;5490846;26;20540;-78
2024/04/17 01:53:28;;;;;;;1.20;1.10;;;6.50;99.90;;;7.27;100.00;97315.16;5492719;25;20602;-78
2024/04/17 01:55:58;;;;;;;1.40;1.10;;;6.40;99.90;;;7.30;100.00;97318.19;5490994;26;20477;-78
2024/04/17 01:58:29;;;;;;;1.20;1.10;;;6.50;99.90;;;7.20;100.00;97317.69;5490453;25;20562;-78
2024/04/17 02:00:59;;;;;;;1.30;1.10;;;6.30;99.90;;;7.25;100.00;97312.75;5490444;26;20532;-78
2024/04/17 02:03:27;;;;;;;2.07;1.30;;;6.50;99.90;;;7.18;100.00;97306.69;5492333;26;20803;-78
2024/04/17 02:05:57;;;;;;;1.10;1.00;;;6.40;99.90;;;7.16;100.00;97323.41;5490713;26;20996;-78
2024/04/17 02:08:24;;;;;;;1.10;1.00;;;6.30;99.90;;;7.17;100.00;97322.44;5490849;26;20479;-78
2024/04/17 02:10:54;;;;;;;1.60;1.37;;;6.30;99.90;;;7.19;100.00;97325.66;5489097;26;20481;-78
2024/04/17 02:13:22;;;;;;;1.30;1.20;;;6.40;99.90;;;7.18;100.00;97322.28;5486838;26;20533;-78
2024/04/17 02:15:55;;;;;;;1.40;1.23;;;6.30;99.90;;;7.22;100.00;97328.69;5489113;26;20948;-78
2024/04/17 02:18:22;;;;;;;1.03;0.97;;;6.40;99.90;;;7.19;100.00;97328.25;5487950;26;21089;-78
2024/04/17 02:20:53;;;;;;;1.53;1.20;;;6.30;99.90;;;7.09;100.00;97325.94;5493506;26;21061;-78
2024/04/17 02:23:20;;;;;;;8.60;1.20;;;6.20;99.90;;;7.07;100.00;97327.94;5490455;26;20468;-78
2024/04/17 02:25:51;;;;;;;2.27;1.20;;;6.20;99.90;;;7.03;100.00;97324.09;5489508;25;20620;-78
2024/04/17 02:28:18;;;;;;;1.40;1.20;;;6.20;99.90;;;7.06;100.00;97321.13;5487461;25;20514;-78
2024/04/17 02:30:49;;;;;;;1.30;1.20;;;6.10;99.90;;;7.07;100.00;97323.56;5488779;26;20493;-78
2024/04/17 02:33:19;;;;;;;1.40;1.23;;;6.30;99.90;;;7.11;100.00;97320.59;5489730;26;21041;-78
2024/04/17 02:35:49;;;;;;;1.53;1.30;;;6.40;99.90;;;7.14;100.00;97331.41;5491969;26;21096;-78
2024/04/17 02:38:17;;;;;;;1.57;1.20;;;6.40;99.90;;;7.18;100.00;97332.66;5489611;25;20491;-78
2024/04/17 02:40:47;;;;;;;2.30;1.40;;;6.40;99.90;;;7.21;100.00;97327.09;5488440;26;21153;-78
2024/04/17 02:43:14;;;;;;;1.93;1.40;;;6.40;99.90;;;7.22;100.00;97327.91;5487443;26;20588;-79
2024/04/17 02:45:45;;;;;;;1.40;1.30;;;6.40;99.90;;;7.27;100.00;97325.56;5488788;25;21458;-78
2024/04/17 02:48:12;;;;;;;1.30;1.20;;;6.40;99.90;;;7.22;100.00;97333.09;5487924;26;20472;-78
2024/04/17 02:50:45;;;;;;;3.23;1.10;;;6.40;99.90;;;7.19;100.00;97330.84;5492376;26;20485;-78
2024/04/17 02:53:13;;;;;;;1.50;1.30;;;6.40;99.90;;;7.17;100.00;97336.25;5488203;26;20475;-78
2024/04/17 02:55:43;;;;;;;1.40;1.20;;;6.40;99.90;;;7.17;100.00;97335.44;5490998;26;21059;-78
2024/04/17 02:58:11;;;;;;;5.50;1.50;;;6.40;99.90;;;7.23;100.00;97334.69;5491878;26;20547;-78
2024/04/17 03:00:41;;;;;;;1.37;1.20;;;6.50;99.90;;;7.22;100.00;97327.91;5492794;26;20522;-78
2024/04/17 03:03:09;;;;;;;1.40;1.30;;;6.40;99.90;;;7.26;100.00;97335.13;5496311;26;20499;-78
2024/04/17 03:05:39;;;;;;;1.20;1.10;;;6.40;99.90;;;7.22;100.00;97339.09;5494156;26;20584;-78
2024/04/17 03:08:09;;;;;;;1.13;1.03;;;6.40;99.90;;;7.22;100.00;97343.50;5482479;26;20485;-78
2024/04/17 03:10:39;;;;;;;1.30;1.20;;;6.40;99.90;;;7.17;100.00;97336.25;5486812;26;20897;-85
2024/04/17 03:13:07;;;;;;;1.93;1.60;;;6.40;99.90;;;7.21;100.00;97341.88;5479101;26;20530;-78
2024/04/17 03:15:37;;;;;;;1.90;1.70;;;6.40;99.90;;;7.22;100.00;97341.69;5484295;26;20485;-78
2024/04/17 03:18:06;;;;;;;1.70;1.60;;;6.40;99.90;;;7.19;100.00;97341.25;5482200;25;20481;-78
2024/04/17 03:20:36;;;;;;;1.53;1.40;;;6.30;99.90;;;7.22;100.00;97344.28;5482878;26;20960;-78
2024/04/17 03:23:04;;;;;;;1.10;1.00;;;6.30;99.90;;;7.16;100.00;97339.84;5481913;26;21083;-82
2024/04/17 03:25:37;;;;;;;4.07;2.70;;;6.40;99.90;;;7.14;100.00;97347.03;5479936;26;21150;-81
2024/04/17 03:28:05;;;;;;;1.77;1.60;;;6.30;99.90;;;7.11;100.00;97347.38;5480771;26;21013;-80
2024/04/17 03:30:35;;;;;;;1.33;1.20;;;6.30;99.90;;;7.13;100.00;97352.38;5486875;26;20957;-78
2024/04/17 03:33:03;;;;;;;1.60;1.50;;;6.30;99.90;;;7.14;100.00;97351.41;5487897;26;20490;-78
2024/04/17 03:35:33;;;;;;;5.00;1.70;;;6.30;99.90;;;7.15;100.00;97347.84;5489184;25;20719;-77
2024/04/17 03:38:04;;;;;;;1.83;1.47;;;6.30;99.90;;;7.13;100.00;97350.59;5489456;26;20488;-78
2024/04/17 03:40:36;;;;;;;2.07;1.70;;;6.30;99.90;;;7.06;100.00;97360.09;5489955;26;21013;-76
2024/04/17 03:43:07;;;;;;;1.37;1.27;;;6.30;99.90;;;7.05;100.00;97367.09;5490086;26;20474;-77
2024/04/17 03:45:37;;;;;;;1.43;1.30;;;6.20;99.90;;;7.08;100.00;97358.13;5484828;25;21158;-78
2024/04/17 03:48:08;;;;;;;1.60;1.50;;;6.20;99.90;;;7.06;100.00;97365.31;5487550;25;21213;-78
2024/04/17 03:50:36;;;;;;;2.50;1.60;;;6.20;99.90;;;7.06;100.00;97360.91;5488473;26;20594;-77
2024/04/17 03:53:08;;;;;;;1.63;1.50;;;6.20;99.90;;;7.04;100.00;97362.09;5488943;26;20531;-78
2024/04/17 03:55:41;;;;;;;2.10;1.90;;;6.20;99.90;;;6.98;100.00;97355.81;5490315;26;21019;-78
2024/04/17 03:58:09;;;;;;;1.80;1.70;;;6.20;99.90;;;6.99;100.00;97364.41;5488882;25;20524;-77
2024/04/17 04:00:39;;;;;;;3.13;1.93;;;6.20;99.90;;;7.01;100.00;97363.25;5486233;26;20925;-77
2024/04/17 04:03:07;;;;;;;2.70;1.97;;;6.20;99.90;;;7.04;100.00;97369.91;5485691;25;20930;-77
2024/04/17 04:05:37;;;;;;;4.37;2.20;;;6.20;99.90;;;7.02;100.00;97364.06;5486875;26;20522;-78
2024/04/17 04:08:05;;;;;;;2.30;2.10;;;6.20;99.90;;;6.98;100.00;97368.00;5482127;25;21347;-83
2024/04/17 04:10:36;;;;;;;3.70;2.77;;;6.20;99.90;;;6.96;100.00;97369.97;5481000;26;21130;-78
2024/04/17 04:13:06;;;;;;;2.57;2.23;;;6.10;99.90;;;6.99;100.00;97369.63;5485891;26;20469;-77
2024/04/17 04:15:36;;;;;;;5.27;2.33;;;6.10;99.90;;;6.96;100.00;97372.59;5488761;26;20523;-77
2024/04/17 04:18:04;;;;;;;3.50;2.60;;;6.20;99.90;;;6.89;100.00;97375.09;5482136;26;20477;-77
2024/04/17 04:20:35;;;;;;;7.60;3.30;;;6.10;99.90;;;6.90;100.00;97388.91;5492083;26;20478;-77
2024/04/17 04:23:03;;;;;;;11.73;2.90;;;6.10;99.90;;;6.89;100.00;97395.06;5489953;25;20493;-77
2024/04/17 04:25:33;;;;;;;3.73;2.83;;;6.00;99.90;;;6.82;100.00;97395.00;5487761;26;20484;-77
2024/04/17 04:28:01;;;;;;;13.17;3.33;;;6.00;99.90;;;6.80;100.00;97390.97;5488011;26;20483;-76
2024/04/17 04:30:39;;;;;;;6.03;2.90;;;6.00;99.90;;;6.80;100.00;97396.16;5487947;26;20492;-76
2024/04/17 04:33:10;;;;;;;4.63;3.30;;;6.00;99.90;;;6.79;100.00;97399.75;5491808;26;20479;-77
2024/04/17 04:35:39;;;;;;;5.20;3.40;;;6.00;99.90;;;6.69;100.00;97394.00;5482968;26;20842;-85
2024/04/17 04:38:09;;;;;;;8.10;3.70;;;5.90;99.90;;;6.74;100.00;97402.06;5484444;25;21046;-76
2024/04/17 04:40:36;;;;;;;5.50;3.90;;;5.90;99.90;;;6.73;100.00;97396.06;5480490;25;20514;-76
2024/04/17 04:43:07;;;;;;;3.90;3.23;;;5.90;99.90;;;6.75;100.00;97403.69;5483642;26;20521;-76
2024/04/17 04:45:38;;;;;;;7.70;3.53;;;5.90;99.90;;;6.76;100.00;97407.91;5480766;26;20472;-77
2024/04/17 04:48:09;;;;;;;5.60;3.37;;;5.90;99.90;;;6.68;100.00;97410.56;5488265;26;20488;-75
2024/04/17 04:50:38;;;;;;;6.17;4.13;;;5.80;99.90;;;6.68;100.00;97407.97;5498098;26;20480;-75
2024/04/17 04:53:08;;;;;;;5.43;3.83;;;5.90;99.90;;;6.71;100.00;97411.03;5496358;25;20476;-76
2024/04/17 04:55:36;;;;;;;6.00;3.90;;;5.90;99.90;;;6.73;100.00;97410.84;5498516;26;20490;-76
2024/04/17 04:58:07;;;;;;;4.33;2.80;;;5.80;99.90;;;6.69;100.00;97413.00;5493944;25;20485;-75
2024/04/17 05:00:39;;;;;;;7.50;4.60;;;5.80;99.90;;;6.72;100.00;97417.03;5495265;26;20540;-76
2024/04/17 05:03:09;;;;;;;5.70;3.83;;;5.80;99.90;;;6.69;100.00;97414.78;5493986;26;20529;-75
2024/04/17 05:05:36;;;;;;;5.17;3.90;;;5.90;99.90;;;6.70;100.00;97422.38;5498279;25;21012;-75
2024/04/17 05:08:07;;;;;;;5.77;4.57;;;5.80;99.90;;;6.65;100.00;97418.72;5497876;26;20463;-75
2024/04/17 05:10:35;;;;;;;6.73;5.60;;;5.90;99.90;;;6.72;100.00;97419.63;5496990;26;21080;-75
2024/04/17 05:13:05;;;;;;;10.30;4.80;;;6.00;99.90;;;6.72;100.00;97423.03;5496332;26;20470;-75
2024/04/17 05:15:33;;;;;;;8.00;4.50;;;5.90;99.90;;;6.73;100.00;97423.84;5493961;26;20480;-75
2024/04/17 05:18:06;;;;;;;10.83;4.87;;;5.90;99.90;;;6.67;100.00;97421.94;5497928;26;20490;-75
2024/04/17 05:20:34;;;;;;;6.10;4.50;;;5.80;99.90;;;6.68;100.00;97433.94;5496505;26;21190;-76
2024/04/17 05:23:04;;;;;;;8.17;5.53;;;5.80;99.90;;;6.69;100.00;97436.38;5493037;26;20482;-75
2024/04/17 05:25:32;;;;;;;11.33;5.10;;;5.80;99.90;;;6.71;100.00;97433.59;5493370;25;20466;-75
2024/04/17 05:28:02;;;;;;;11.50;5.30;;;5.80;99.90;;;6.78;100.00;97444.88;5495555;26;20598;-75
2024/04/17 05:30:30;;;;;;;24.23;5.70;;;5.80;99.90;;;6.81;100.00;97444.53;5495667;26;20477;-76
2024/04/17 05:33:00;;;;;;;11.90;5.97;;;5.90;99.90;;;6.85;100.00;97441.41;5493923;26;20584;-76
2024/04/17 05:35:30;;;;;;;10.57;6.20;;;6.00;99.90;;;6.85;100.00;97451.00;5497035;26;20531;-75
2024/04/17 05:38:01;;;;;;;8.97;4.90;;;6.00;99.90;;;6.94;100.00;97450.72;5495539;26;20488;-76
2024/04/17 05:40:28;;;;;;;8.50;5.47;;;6.10;99.90;;;6.98;100.00;97444.19;5495006;26;20467;-75
2024/04/17 05:42:59;;;;;;;11.97;5.70;;;6.10;99.90;;;6.98;100.00;97451.97;5494619;25;20542;-76
2024/04/17 05:45:27;;;;;;;13.10;6.97;;;6.20;99.90;;;7.03;100.00;97459.25;5492672;25;20467;-76
2024/04/17 05:47:57;;;;;;;13.27;5.60;;;6.20;99.90;;;7.08;100.00;97457.72;5492190;26;20486;-76
2024/04/17 05:50:25;;;;;;;13.40;5.90;;;6.30;99.90;;;7.16;100.00;97462.03;5490029;26;20524;-75
2024/04/17 05:52:58;;;;;;;9.20;5.57;;;6.40;99.90;;;7.22;100.00;97453.50;5494994;25;20577;-76
2024/04/17 05:55:29;;;;;;;10.93;5.70;;;6.40;99.90;;;7.22;100.00;97458.69;5494512;25;20596;-75
2024/04/17 05:57:57;;;;;;;9.63;5.80;;;6.30;99.90;;;7.18;100.00;97457.47;5493580;26;20467;-75
2024/04/17 06:00:27;;;;;;;13.43;5.37;;;6.30;99.90;;;7.16;100.00;97459.41;5496618;26;20513;-76
2024/04/17 06:02:54;;;;;;;12.57;5.27;;;6.40;99.90;;;7.24;100.00;97456.75;5495757;26;20592;-75
2024/04/17 06:05:28;;;;;;;11.43;5.03;;;6.40;99.90;;;7.25;100.00;97467.94;5493495;26;21057;-76
2024/04/17 06:07:58;;;;;;;8.17;5.07;;;6.40;99.90;;;7.22;100.00;97463.91;5495143;25;21004;-76
2024/04/17 06:10:28;;;;;;;11.47;4.83;;;6.50;99.90;;;7.27;100.00;97477.16;5492812;26;20477;-75
2024/04/17 06:12:56;;;;;;;6.67;4.40;;;6.50;99.90;;;7.18;100.00;97473.06;5494157;26;20523;-76
2024/04/17 06:15:27;;;;;;;12.70;4.67;;;6.60;99.90;;;7.29;100.00;97480.38;5494879;26;20473;-76
2024/04/17 06:17:55;;;;;;;12.57;4.17;;;6.60;99.90;;;7.25;100.00;97486.97;5492774;26;20607;-75
2024/04/17 06:20:26;;;;;;;7.77;4.37;;;6.60;99.90;;;7.34;100.00;97488.47;5497358;26;20515;-76
2024/04/17 06:22:54;;;;;;;7.60;3.23;;;6.70;99.90;;;7.35;100.00;97494.47;5497334;26;20480;-75
2024/04/17 06:25:27;;;;;;;11.83;3.83;;;6.70;99.90;;;7.44;100.00;97493.38;5500826;26;20568;-75
2024/04/17 06:27:55;;;;;;;6.33;3.17;;;6.70;99.90;;;7.48;100.00;97500.66;5496228;26;21722;-76
2024/04/17 06:30:25;;;;;;;7.30;3.10;;;6.80;99.90;;;7.40;100.00;97500.75;5497073;26;20594;-75
2024/04/17 06:32:53;;;;;;;6.07;3.47;;;6.80;99.90;;;7.33;100.00;97496.44;5498325;26;20549;-76
2024/04/17 06:35:23;;;;;;;13.30;4.53;;;6.60;99.90;;;7.33;100.00;97501.63;5494410;25;20524;-75
2024/04/17 06:37:51;;;;;;;9.70;3.47;;;6.70;99.90;;;7.27;100.00;97505.78;5496482;26;20470;-75
2024/04/17 06:40:21;;;;;;;8.47;3.73;;;6.50;99.90;;;7.29;100.00;97500.41;5498388;26;20465;-76
2024/04/17 06:42:52;;;;;;;7.23;3.43;;;6.60;99.90;;;7.38;100.00;97507.13;5499930;26;20552;-75
2024/04/17 06:45:22;;;;;;;8.17;2.90;;;6.70;99.90;;;7.45;100.00;97505.41;5497553;26;20485;-75
2024/04/17 06:47:49;;;;;;;5.53;2.90;;;6.70;99.90;;;7.50;100.00;97506.47;5495975;26;20530;-75
2024/04/17 06:50:20;;;;;;;12.50;4.07;;;6.80;99.90;;;7.49;100.00;97501.47;5500691;26;21422;-76
2024/04/17 06:52:48;;;;;;;7.87;3.43;;;6.80;99.90;;;7.53;100.00;97507.94;5497643;26;20591;-75
2024/04/17 06:55:19;;;;;;;6.20;3.10;;;6.90;99.90;;;7.53;100.00;97508.72;5497861;26;20485;-75
2024/04/17 06:57:46;;;;;;;4.40;2.53;;;6.90;99.90;;;7.60;100.00;97514.81;5497735;26;20602;-75
2024/04/17 07:00:20;;;;;;;6.67;2.77;;;6.90;99.90;;;7.60;100.00;97522.59;5497772;26;20585;-75
2024/04/17 07:02:47;;;;;;;5.63;2.37;;;6.90;99.90;;;7.67;100.00;97521.91;5498252;25;20544;-75
2024/04/17 07:05:29;;;;;;;6.87;3.23;;;6.90;99.90;;;7.72;100.00;97517.75;5497376;26;20523;-75
2024/04/17 07:07:57;;;;;;;5.53;2.87;;;7.00;99.90;;;7.70;100.00;97524.16;5497466;26;20568;-76
2024/04/17 07:10:27;;;;;;;7.00;3.03;;;7.10;99.90;;;7.59;100.00;97528.81;5501982;25;20567;-75
2024/04/17 07:12:55;;;;;;;4.30;2.80;;;6.90;99.90;;;7.67;100.00;97524.50;5498363;26;21234;-75
2024/04/17 07:15:28;;;;;;;6.17;2.70;;;7.00;99.90;;;7.60;100.00;97527.81;5499431;26;20631;-75
2024/04/17 07:17:58;;;;;;;5.33;2.50;;;6.90;99.90;;;7.62;100.00;97519.84;5497085;26;20549;-77
2024/04/17 07:20:26;;;;;;;11.47;2.60;;;6.90;99.90;;;7.71;100.00;97531.75;5496961;26;20531;-76
2024/04/17 07:22:57;;;;;;;3.60;2.70;;;7.00;99.90;;;7.54;100.00;97525.94;5502201;26;20472;-77
2024/04/17 07:25:26;;;;;;;4.33;2.70;;;7.00;99.90;;;7.62;100.00;97532.84;5495361;25;20525;-76
2024/04/17 07:27:57;;;;;;;9.67;2.97;;;7.00;99.90;;;7.65;100.00;97529.88;5498976;26;20537;-76
2024/04/17 07:30:27;;;;;;;11.77;3.13;;;7.00;99.90;;;7.73;100.00;97534.19;5495270;26;21127;-75
2024/04/17 07:32:57;;;;;;;8.23;2.47;;;7.00;99.90;;;7.72;100.00;97542.97;5496705;26;20466;-75
2024/04/17 07:35:25;;;;;;;6.90;2.73;;;6.90;99.90;;;7.78;100.00;97537.84;5500275;26;20470;-75
2024/04/17 07:37:55;;;;;;;5.67;2.70;;;7.00;99.90;;;7.83;100.00;97535.53;5496742;26;20522;-75
2024/04/17 07:40:23;;;;;;;18.13;3.40;;;7.10;99.90;;;7.86;100.00;97542.97;5497866;25;20470;-76
2024/04/17 07:42:53;;;;;;;6.90;2.80;;;7.10;99.90;;;7.96;100.00;97540.88;5497630;26;20528;-77
2024/04/17 07:45:21;;;;;;;5.33;2.73;;;7.20;99.90;;;7.95;100.00;97538.44;5498672;26;21309;-76
2024/04/17 07:47:55;;;;;;;30.40;3.43;;;7.30;99.90;;;7.93;100.00;97535.22;5499394;26;20866;-76
2024/04/17 07:50:23;;;;;;;4.60;2.60;;;7.30;99.90;;;7.83;100.00;97534.72;5496102;26;20525;-76
2024/04/17 07:52:54;;;;;;;5.70;3.10;;;7.00;99.90;;;7.93;100.00;97540.44;5497177;26;20479;-75
2024/04/17 07:55:22;;;;;;;8.33;2.93;;;7.20;99.90;;;7.94;100.00;97539.44;5496566;26;20810;-75
2024/04/17 07:57:52;;;;;;;4.37;2.47;;;7.30;99.90;;;8.09;100.00;97548.81;5500728;26;21173;-75
2024/04/17 08:00:19;;;;;;;9.20;2.90;;;7.40;99.90;;;8.13;100.00;97541.44;5501780;25;20604;-75
2024/04/17 08:02:50;;;;;;;3.97;2.13;;;7.40;99.90;;;8.16;100.00;97545.50;5498213;26;20531;-75
2024/04/17 08:05:20;;;;;;;8.83;2.47;;;7.40;99.90;;;8.18;100.00;97536.50;5498305;26;21108;-75
2024/04/17 08:07:50;;;;;;;7.07;2.30;;;7.40;99.90;;;8.09;100.00;97543.63;5497349;26;20597;-75
2024/04/17 08:10:18;;;;;;;5.53;2.63;;;7.30;99.90;;;8.15;100.00;97543.88;5496368;26;20472;-75
2024/04/17 08:12:52;;;;;;;4.83;2.50;;;7.50;99.90;;;8.18;100.00;97541.72;5494941;26;20598;-75
2024/04/17 08:15:21;;;;;;;10.00;2.63;;;7.60;99.90;;;8.22;100.00;97544.78;5492225;26;20492;-75
2024/04/17 08:17:51;;;;;;;4.17;2.90;;;7.60;99.90;;;8.20;100.00;97550.16;5494010;26;20638;-75
2024/04/17 08:20:25;;;;;;;8.13;2.50;;;7.50;99.90;;;8.21;100.00;97554.38;5495435;25;20570;-76
2024/04/17 08:22:52;;;;;;;5.70;2.30;;;7.60;99.90;;;8.21;100.00;97549.16;5493515;25;20528;-75
2024/04/17 08:25:22;;;;;;;6.70;2.10;;;7.50;99.90;;;8.06;100.00;97553.59;5496963;26;21196;-75
2024/04/17 08:27:50;;;;;;;3.90;2.20;;;7.40;99.90;;;8.00;100.00;97564.75;5492454;26;20995;-75
2024/04/17 08:30:20;;;;;;;3.10;2.07;;;7.20;99.90;;;7.91;100.00;97552.84;5493180;26;20555;-75
2024/04/17 08:32:49;;;;;;;10.53;2.70;;;7.40;99.90;;;7.93;100.00;97559.47;5497151;26;20482;-75
2024/04/17 08:35:24;;;;;;;11.07;1.70;;;7.40;99.90;;;7.93;100.00;97556.03;5492910;25;20559;-75
2024/04/17 08:37:52;;;;;;;3.00;1.83;;;7.50;99.90;;;7.96;100.00;97560.88;5493610;26;20546;-76
2024/04/17 08:40:23;;;;;;;4.23;2.37;;;7.40;99.90;;;8.13;100.00;97559.69;5493403;26;20611;-76
2024/04/17 08:42:55;;;;;;;2.30;1.70;;;7.50;99.90;;;8.30;100.00;97560.28;5494038;26;21072;-76
2024/04/17 08:45:34;;;;;;;2.70;1.50;;;7.60;99.90;;;8.40;100.00;97555.63;5494799;26;20537;-76
2024/04/17 08:48:17;;;;;;;4.40;1.67;;;7.70;99.90;;;8.55;100.00;97557.16;5495115;26;20586;-76
2024/04/17 08:50:51;;;;;;;3.47;1.73;;;7.90;99.90;;;8.62;100.00;97559.81;5497641;26;20459;-76
2024/04/17 08:53:19;;;;;;;7.40;1.87;;;8.00;99.90;;;8.68;100.00;97550.47;5495059;26;20471;-75
2024/04/17 08:55:50;;;;;;;4.20;1.60;;;8.00;99.90;;;8.73;100.00;97561.94;5494482;25;20477;-75
2024/04/17 08:58:18;;;;;;;3.60;1.60;;;8.00;99.90;;;8.67;100.00;97565.28;5494322;26;21028;-75
2024/04/17 09:00:51;;;;;;;7.60;3.23;;;7.90;99.90;;;8.74;100.00;97568.78;5495229;26;20994;-75
2024/04/17 09:03:22;;;;;;;2.53;1.77;;;8.00;99.90;;;8.76;100.00;97561.56;5497732;26;21221;-75
2024/04/17 09:05:56;;;;;;;4.33;1.77;;;8.10;99.90;;;8.78;100.00;97577.03;5493458;26;20481;-75
2024/04/17 09:08:25;;;;;;;5.63;1.50;;;8.20;99.90;;;8.71;100.00;97578.75;5493989;26;20481;-75
2024/04/17 09:10:57;;;;;;;6.80;3.33;;;8.10;99.90;;;8.80;100.00;97577.63;5496621;26;20482;-75
2024/04/17 09:13:25;;;;;;;8.90;1.80;;;8.10;99.90;;;8.91;100.00;97572.72;5496344;26;20465;-75
2024/04/17 09:15:56;;;;;;;3.47;1.70;;;8.20;99.90;;;8.90;100.00;97565.06;5493079;26;20485;-75
2024/04/17 09:18:28;;;;;;;7.03;1.60;;;8.10;99.90;;;9.01;100.00;97568.00;5495844;26;20585;-76
2024/04/17 09:21:02;;;;;;;2.30;1.43;;;8.30;99.90;;;9.12;100.00;97568.47;5495591;26;20477;-76
2024/04/17 09:23:30;;;;;;;6.47;2.00;;;8.40;99.90;;;9.03;100.00;97567.78;5497582;26;20479;-76
2024/04/17 09:26:00;;;;;;;8.67;1.53;;;8.30;99.90;;;8.93;100.00;97570.72;5496215;25;20497;-75
2024/04/17 09:28:28;;;;;;;6.30;2.00;;;8.30;99.90;;;8.91;100.00;97577.94;5498126;26;20469;-75
2024/04/17 09:30:58;;;;;;;4.13;1.40;;;8.20;99.90;;;8.94;100.00;97567.13;5497717;26;20492;-75
2024/04/17 09:33:26;;;;;;;4.40;1.67;;;8.20;99.90;;;9.04;100.00;97569.41;5497671;26;20483;-75
2024/04/17 09:35:56;;;;;;;2.03;1.47;;;8.40;99.90;;;9.13;100.00;97559.66;5499419;25;20501;-75
2024/04/17 09:38:26;;;;;;;5.73;2.03;;;8.40;99.90;;;9.19;100.00;97554.47;5495066;25;21164;-75
2024/04/17 09:40:58;;;;;;;11.37;1.60;;;8.50;99.90;;;9.26;100.00;97554.53;5494273;26;20899;-75
2024/04/17 09:43:28;;;;;;;2.27;1.37;;;8.50;99.90;;;9.37;100.00;97552.16;5497336;26;20464;-75
2024/04/17 09:46:02;;;;;;;2.90;1.33;;;8.70;99.90;;;9.42;100.00;97549.81;5496715;26;20544;-75
2024/04/17 09:48:30;;;;;;;2.20;1.40;;;8.80;99.90;;;9.28;100.00;97550.72;5496440;26;20489;-76
2024/04/17 09:51:05;;;;;;;7.63;1.83;;;8.70;99.90;;;9.35;100.00;97548.97;5494177;25;20592;-76
2024/04/17 09:53:37;;;;;;;4.67;2.93;;;8.70;99.90;;;9.28;100.00;97542.09;5496840;26;20520;-75
2024/04/17 09:56:09;;;;;;;2.00;1.00;;;8.60;99.90;;;9.29;100.00;97546.31;5497010;26;20763;-75
2024/04/17 09:58:39;;;;;;;4.40;1.77;;;8.50;99.90;;;9.36;100.00;97536.72;5502470;26;20461;-75
2024/04/17 10:01:19;;;;;;;1.23;1.10;;;8.70;99.90;;;9.42;100.00;97541.97;5495164;26;20560;-75
2024/04/17 10:03:49;;;;;;;5.77;1.50;;;8.80;99.90;;;9.49;100.00;97542.81;5494047;26;20603;-75
2024/04/17 10:06:22;;;;;;;3.83;1.37;;;8.90;99.90;;;9.38;100.00;97537.31;5498922;26;20476;-76
2024/04/17 10:08:53;;;;;;;2.07;1.10;;;8.80;99.90;;;9.37;100.00;97536.50;5497172;26;21038;-76
2024/04/17 10:11:28;;;;;;;5.83;1.40;;;8.80;99.70;;;9.43;100.00;97534.97;5500562;26;20606;-75
2024/04/17 10:13:58;;;;;;;5.20;1.20;;;8.80;99.40;;;9.50;100.00;97528.78;5496970;26;20848;-75
2024/04/17 10:16:28;;;;;;;1.73;1.40;;;8.80;99.50;;;9.64;100.00;97526.22;5496914;25;21002;-75
2024/04/17 10:18:56;;;;;;;7.40;1.23;;;9.00;99.90;;;9.72;100.00;97528.69;5496222;26;20476;-76
2024/04/17 10:21:27;;;;;;;3.83;1.33;;;9.00;99.90;;;9.78;100.00;97527.91;5498059;26;20539;-76
2024/04/17 10:24:03;;;;;;;4.03;1.50;;;9.00;99.90;;;9.81;100.00;97517.88;5498662;25;20473;-76
2024/04/17 10:26:45;;;;;;;3.47;1.63;;;9.20;99.90;;;9.82;100.00;97519.47;5499037;26;20479;-75
2024/04/17 10:29:17;;;;;;;5.50;1.60;;;9.10;99.90;;;9.84;100.00;97527.13;5500746;26;20916;-75
2024/04/17 10:32:01;;;;;;;1.57;1.13;;;9.10;99.90;;;9.84;100.00;97522.72;5499353;25;20855;-76
2024/04/17 10:34:42;;;;;;;2.73;1.30;;;9.10;98.60;;;9.81;100.00;97511.84;5496626;26;20460;-75
2024/04/17 10:37:14;;;;;;;2.57;1.03;;;9.10;97.60;;;9.91;100.00;97512.28;5498581;26;20483;-75